Time;durP1;ratioP1;P1;durP2;ratioP2;P2;SDS_P1;SDS_P2;PMS_P1;PMS_P2;Temp;Humidity;BMP_temperature;BMP_pressure;BME280_temperature;BME280_humidity;BME280_pressure;Samples;Min_cycle;Max_cycle;Signal;HPM_P1;HPM_P2
2024/03/15 00:00:24;;;;;;;;;;;8.50;99.90;;;;;;5069726;28;20369;-73
2024/03/15 00:02:50;;;;;;;;;;;8.50;99.90;;;;;;5071571;28;19908;-73
2024/03/15 00:05:16;;;;;;;;;;;8.60;99.90;;;;;;5072635;28;19930;-73
2024/03/15 00:07:41;;;;;;;;;;;8.40;99.90;;;;;;5076925;28;19943;-73
2024/03/15 00:10:07;;;;;;;;;;;8.40;99.90;;;;;;5072241;28;19967;-72
2024/03/15 00:12:35;;;;;;;;;;;8.30;99.90;;;;;;5075397;28;19904;-74
2024/03/15 00:15:01;;;;;;;;;;;8.30;99.90;;;;;;5078285;28;19908;-74
2024/03/15 00:17:27;;;;;;;;;;;8.20;99.90;;;;;;5078825;28;20316;-73
2024/03/15 00:19:53;;;;;;;;;;;8.10;99.90;;;;;;5072510;28;19909;-73
2024/03/15 00:22:18;;;;;;;;;;;8.00;99.90;;;;;;5069451;28;19905;-72
2024/03/15 00:24:44;;;;;;;;;;;7.90;99.90;;;;;;5070081;28;20323;-74
2024/03/15 00:27:09;;;;;;;;;;;7.80;99.90;;;;;;5068716;28;20377;-73
2024/03/15 00:29:36;;;;;;;;;;;7.80;99.90;;;;;;5069905;28;20372;-74
2024/03/15 00:32:02;;;;;;;;;;;7.70;99.90;;;;;;5069839;28;19904;-72
2024/03/15 00:34:27;;;;;;;;;;;7.60;99.90;;;;;;5069793;28;19999;-72
2024/03/15 00:36:53;;;;;;;;;;;7.50;99.90;;;;;;5069806;28;19909;-72
2024/03/15 00:39:20;;;;;;;;;;;7.50;99.90;;;;;;5069601;28;19962;-71
2024/03/15 00:41:48;;;;;;;;;;;7.50;99.90;;;;;;5069904;28;19904;-74
2024/03/15 00:44:17;;;;;;;;;;;7.50;99.90;;;;;;5068385;28;19923;-73
2024/03/15 00:46:43;;;;;;;;;;;7.40;99.90;;;;;;5068274;28;19915;-73
2024/03/15 00:49:10;;;;;;;;;;;7.50;99.90;;;;;;5069709;28;19909;-72
2024/03/15 00:51:36;;;;;;;;;;;7.50;99.90;;;;;;5069750;28;19908;-72
2024/03/15 00:54:03;;;;;;;;;;;7.40;99.90;;;;;;5068173;28;19931;-73
2024/03/15 00:56:28;;;;;;;;;;;7.30;99.90;;;;;;5069527;28;19912;-73
2024/03/15 00:58:54;;;;;;;;;;;7.30;99.90;;;;;;5068195;28;20478;-73
2024/03/15 01:01:19;;;;;;;;;;;7.40;99.90;;;;;;5068027;28;19940;-72
2024/03/15 01:03:45;;;;;;;;;;;7.30;99.90;;;;;;5069539;28;19908;-73
2024/03/15 01:06:13;;;;;;;;;;;7.30;99.90;;;;;;5069638;28;19916;-72
2024/03/15 01:08:39;;;;;;;;;;;7.30;99.90;;;;;;5069602;28;19908;-73
2024/03/15 01:11:05;;;;;;;;;;;7.30;99.90;;;;;;5067991;28;19908;-72
2024/03/15 01:13:30;;;;;;;;;;;7.30;99.90;;;;;;5069390;28;19908;-73
2024/03/15 01:15:56;;;;;;;;;;;7.30;99.90;;;;;;5068418;28;19909;-73
2024/03/15 01:18:21;;;;;;;;;;;7.30;99.90;;;;;;5069890;28;20407;-73
2024/03/15 01:20:47;;;;;;;;;;;7.40;99.90;;;;;;5073288;28;19916;-73
2024/03/15 01:23:12;;;;;;;;;;;7.50;99.90;;;;;;5071950;28;19915;-71
2024/03/15 01:25:39;;;;;;;;;;;7.50;99.90;;;;;;5073201;28;19926;-72
2024/03/15 01:28:05;;;;;;;;;;;7.40;99.90;;;;;;5071764;28;20422;-73
2024/03/15 01:30:31;;;;;;;;;;;7.40;99.90;;;;;;5073104;28;19909;-73
2024/03/15 01:32:57;;;;;;;;;;;7.50;99.90;;;;;;5073104;28;20416;-73
2024/03/15 01:35:23;;;;;;;;;;;7.50;99.90;;;;;;5072765;28;19962;-73
2024/03/15 01:37:49;;;;;;;;;;;7.50;99.90;;;;;;5072784;28;19912;-73
2024/03/15 01:40:15;;;;;;;;;;;7.60;99.90;;;;;;5072905;28;19911;-73
2024/03/15 01:42:41;;;;;;;;;;;7.60;99.90;;;;;;5072907;28;19912;-74
2024/03/15 01:45:09;;;;;;;;;;;7.60;99.90;;;;;;5071467;28;19982;-73
2024/03/15 01:47:35;;;;;;;;;;;7.60;99.90;;;;;;5072642;28;20385;-73
2024/03/15 01:50:01;;;;;;;;;;;7.60;99.90;;;;;;5071580;28;19999;-73
2024/03/15 01:52:30;;;;;;;;;;;7.50;99.90;;;;;;5072728;28;19991;-74
2024/03/15 01:54:56;;;;;;;;;;;7.50;99.90;;;;;;5071431;28;20285;-73
2024/03/15 01:57:23;;;;;;;;;;;7.40;99.90;;;;;;5072561;28;19908;-72
2024/03/15 01:59:48;;;;;;;;;;;7.30;99.90;;;;;;5071295;28;19919;-73
2024/03/15 02:02:14;;;;;;;;;;;7.30;99.90;;;;;;5072583;28;19908;-73
2024/03/15 02:04:40;;;;;;;;;;;7.20;99.90;;;;;;5070998;28;19935;-73
2024/03/15 02:07:06;;;;;;;;;;;7.20;99.90;;;;;;5072545;28;19909;-73
2024/03/15 02:09:32;;;;;;;;;;;7.20;99.90;;;;;;5072375;28;19961;-72
2024/03/15 02:11:57;;;;;;;;;;;7.20;99.90;;;;;;5072963;28;20365;-72
2024/03/15 02:14:23;;;;;;;;;;;7.20;99.90;;;;;;5071690;28;20333;-73
2024/03/15 02:16:49;;;;;;;;;;;7.10;99.90;;;;;;5070646;28;19934;-73
2024/03/15 02:19:14;;;;;;;;;;;7.10;99.90;;;;;;5070870;28;19911;-72
2024/03/15 02:21:40;;;;;;;;;;;7.00;99.90;;;;;;5070899;28;20373;-72
2024/03/15 02:24:06;;;;;;;;;;;7.00;99.90;;;;;;5072012;28;19908;-73
2024/03/15 02:26:32;;;;;;;;;;;7.00;99.90;;;;;;5072118;28;19908;-73
2024/03/15 02:28:58;;;;;;;;;;;7.00;99.90;;;;;;5071959;28;19912;-73
2024/03/15 02:31:24;;;;;;;;;;;7.00;99.90;;;;;;5070080;28;20316;-72
2024/03/15 02:33:50;;;;;;;;;;;7.00;99.90;;;;;;5070544;28;19908;-71
2024/03/15 02:36:15;;;;;;;;;;;7.00;99.90;;;;;;5070637;28;19966;-73
2024/03/15 02:38:41;;;;;;;;;;;7.00;99.90;;;;;;5070548;28;19911;-73
2024/03/15 02:41:09;;;;;;;;;;;6.90;99.90;;;;;;5070576;28;19904;-72
2024/03/15 02:43:35;;;;;;;;;;;6.90;99.90;;;;;;5070387;28;19908;-73
2024/03/15 02:46:01;;;;;;;;;;;6.90;99.90;;;;;;5071938;28;19916;-71
2024/03/15 02:48:26;;;;;;;;;;;6.80;99.90;;;;;;5070822;28;19912;-73
2024/03/15 02:50:52;;;;;;;;;;;6.80;99.90;;;;;;5070756;28;19904;-73
2024/03/15 02:53:19;;;;;;;;;;;6.80;99.90;;;;;;5072075;28;20319;-73
2024/03/15 02:55:44;;;;;;;;;;;6.80;99.90;;;;;;5071135;28;19912;-72
2024/03/15 02:58:11;;;;;;;;;;;6.90;99.90;;;;;;5072033;28;19908;-73
2024/03/15 03:00:37;;;;;;;;;;;6.90;99.90;;;;;;5070747;28;19911;-73
2024/03/15 03:03:03;;;;;;;;;;;6.90;99.90;;;;;;5077048;28;19912;-72
2024/03/15 03:05:30;;;;;;;;;;;6.90;99.90;;;;;;5078582;28;19941;-72
2024/03/15 03:07:56;;;;;;;;;;;6.90;99.90;;;;;;5071561;28;19909;-73
2024/03/15 03:10:22;;;;;;;;;;;6.90;99.90;;;;;;5073246;28;20077;-74
2024/03/15 03:12:47;;;;;;;;;;;6.90;99.90;;;;;;5071377;28;19908;-74
2024/03/15 03:15:14;;;;;;;;;;;6.90;99.90;;;;;;5069664;28;19905;-73
2024/03/15 03:17:39;;;;;;;;;;;6.90;99.90;;;;;;5071465;28;20006;-73
2024/03/15 03:20:11;;;;;;;;;;;6.90;99.90;;;;;;5069785;28;20041;-72
2024/03/15 03:22:37;;;;;;;;;;;6.90;99.90;;;;;;5069573;28;19908;-72
2024/03/15 03:25:02;;;;;;;;;;;7.00;99.90;;;;;;5069617;28;19912;-73
2024/03/15 03:27:28;;;;;;;;;;;7.00;99.90;;;;;;5069456;28;19958;-73
2024/03/15 03:29:53;;;;;;;;;;;7.00;99.90;;;;;;5069599;28;19908;-73
2024/03/15 03:32:19;;;;;;;;;;;6.90;99.90;;;;;;5073292;28;19904;-74
2024/03/15 03:34:44;;;;;;;;;;;7.00;99.90;;;;;;5077333;28;19973;-72
2024/03/15 03:37:10;;;;;;;;;;;7.00;99.90;;;;;;5071539;28;19908;-73
2024/03/15 03:39:36;;;;;;;;;;;7.10;99.90;;;;;;5077137;28;19933;-72
2024/03/15 03:42:05;;;;;;;;;;;7.00;99.90;;;;;;5076795;28;19908;-72
2024/03/15 03:44:32;;;;;;;;;;;7.00;99.90;;;;;;5074411;28;19924;-72
2024/03/15 03:46:58;;;;;;;;;;;7.00;99.90;;;;;;5069606;28;20364;-73
2024/03/15 03:49:23;;;;;;;;;;;7.00;99.90;;;;;;5070848;28;19936;-73
2024/03/15 03:51:49;;;;;;;;;;;7.00;99.90;;;;;;5070548;28;20002;-73
2024/03/15 03:54:15;;;;;;;;;;;7.00;99.90;;;;;;5070416;28;19909;-73
2024/03/15 03:56:41;;;;;;;;;;;6.90;99.90;;;;;;5070170;28;19965;-73
2024/03/15 03:59:07;;;;;;;;;;;6.90;99.90;;;;;;5070312;28;20381;-74
2024/03/15 04:01:33;;;;;;;;;;;6.90;99.90;;;;;;5070198;28;19957;-72
2024/03/15 04:03:59;;;;;;;;;;;6.90;99.90;;;;;;5068699;28;19916;-73
2024/03/15 04:06:25;;;;;;;;;;;6.90;99.90;;;;;;5069261;28;20004;-74
2024/03/15 04:08:51;;;;;;;;;;;6.90;99.90;;;;;;5070135;28;19909;-72
2024/03/15 04:11:16;;;;;;;;;;;6.90;99.90;;;;;;5070291;28;19915;-72
2024/03/15 04:13:42;;;;;;;;;;;6.90;99.90;;;;;;5068861;28;20053;-73
2024/03/15 04:16:07;;;;;;;;;;;7.00;99.90;;;;;;5068726;28;20036;-73
2024/03/15 04:18:34;;;;;;;;;;;6.90;99.90;;;;;;5070162;28;20364;-73
2024/03/15 04:21:00;;;;;;;;;;;6.90;99.90;;;;;;5069995;28;19912;-73
2024/03/15 04:23:25;;;;;;;;;;;6.80;99.90;;;;;;5068729;28;19919;-72
2024/03/15 04:25:51;;;;;;;;;;;6.80;99.90;;;;;;5070888;28;19999;-73
2024/03/15 04:28:19;;;;;;;;;;;6.70;99.90;;;;;;5070208;28;19908;-74
2024/03/15 04:30:48;;;;;;;;;;;6.70;99.90;;;;;;5069893;28;20395;-74
2024/03/15 04:33:13;;;;;;;;;;;6.60;99.90;;;;;;5069878;28;19970;-72
2024/03/15 04:35:40;;;;;;;;;;;6.60;99.90;;;;;;5069645;28;19917;-73
2024/03/15 04:38:05;;;;;;;;;;;6.60;99.90;;;;;;5068548;28;19999;-72
2024/03/15 04:40:31;;;;;;;;;;;6.60;99.90;;;;;;5068632;28;19987;-72
2024/03/15 04:42:57;;;;;;;;;;;6.60;99.90;;;;;;5069806;28;19912;-72
2024/03/15 04:45:23;;;;;;;;;;;6.60;99.90;;;;;;5069745;28;19916;-73
2024/03/15 04:47:49;;;;;;;;;;;6.60;99.90;;;;;;5069820;28;20295;-72
2024/03/15 04:50:15;;;;;;;;;;;6.60;99.90;;;;;;5068334;28;19908;-73
2024/03/15 04:52:41;;;;;;;;;;;6.50;99.90;;;;;;5069124;28;20576;-73
2024/03/15 04:55:08;;;;;;;;;;;6.50;99.90;;;;;;5073947;28;19954;-73
2024/03/15 04:57:36;;;;;;;;;;;6.50;99.90;;;;;;5072499;28;20365;-74
2024/03/15 05:00:08;;;;;;;;;;;6.50;99.90;;;;;;5072380;28;20300;-73
2024/03/15 05:02:34;;;;;;;;;;;6.50;99.90;;;;;;5073774;28;20369;-73
2024/03/15 05:04:59;;;;;;;;;;;6.50;99.90;;;;;;5072123;28;19970;-73
2024/03/15 05:07:25;;;;;;;;;;;6.50;99.90;;;;;;5073523;28;19908;-71
2024/03/15 05:09:50;;;;;;;;;;;6.50;99.90;;;;;;5073711;28;19915;-73
2024/03/15 05:12:16;;;;;;;;;;;6.50;99.90;;;;;;5071929;28;19909;-73
2024/03/15 05:14:41;;;;;;;;;;;6.50;99.90;;;;;;5071995;28;19908;-73
2024/03/15 05:17:07;;;;;;;;;;;6.50;99.90;;;;;;5073398;28;19948;-72
2024/03/15 05:19:32;;;;;;;;;;;6.50;99.90;;;;;;5072240;28;19908;-72
2024/03/15 05:22:02;;;;;;;;;;;6.50;99.90;;;;;;5073237;28;19912;-73
2024/03/15 05:24:27;;;;;;;;;;;6.50;99.90;;;;;;5072056;28;19962;-73
2024/03/15 05:26:53;;;;;;;;;;;6.60;99.90;;;;;;5071641;28;20631;-73
2024/03/15 05:29:18;;;;;;;;;;;6.60;99.90;;;;;;5073162;28;19908;-73
2024/03/15 05:31:44;;;;;;;;;;;6.70;99.90;;;;;;5073576;28;20322;-72
2024/03/15 05:34:09;;;;;;;;;;;6.80;99.90;;;;;;5073524;28;20388;-72
2024/03/15 05:36:35;;;;;;;;;;;6.80;99.90;;;;;;5072087;28;20584;-73
2024/03/15 05:39:01;;;;;;;;;;;6.90;99.90;;;;;;5072049;28;20423;-73
2024/03/15 05:41:26;;;;;;;;;;;7.00;99.90;;;;;;5073687;28;20273;-73
2024/03/15 05:43:52;;;;;;;;;;;7.00;99.90;;;;;;5072173;28;19912;-72
2024/03/15 05:46:17;;;;;;;;;;;7.00;99.90;;;;;;5075106;28;19912;-73
2024/03/15 05:48:43;;;;;;;;;;;7.10;99.90;;;;;;5077591;28;20140;-74
2024/03/15 05:51:08;;;;;;;;;;;7.20;99.90;;;;;;5076319;28;19908;-73
2024/03/15 05:53:34;;;;;;;;;;;7.30;99.90;;;;;;5073388;28;19904;-73
2024/03/15 05:55:59;;;;;;;;;;;7.40;99.90;;;;;;5072713;28;19908;-73
2024/03/15 05:58:25;;;;;;;;;;;7.60;99.90;;;;;;5071132;28;19908;-71
2024/03/15 06:00:50;;;;;;;;;;;7.80;99.90;;;;;;5071260;28;19908;-72
2024/03/15 06:03:16;;;;;;;;;;;7.90;99.90;;;;;;5071287;28;19923;-74
2024/03/15 06:05:42;;;;;;;;;;;8.10;99.90;;;;;;5070174;28;20339;-73
2024/03/15 06:08:10;;;;;;;;;;;8.20;99.90;;;;;;5072590;28;20285;-72
2024/03/15 06:10:39;;;;;;;;;;;8.40;99.90;;;;;;5072354;28;19904;-72
2024/03/15 06:13:05;;;;;;;;;;;8.50;99.90;;;;;;5071047;28;20716;-73
2024/03/15 06:15:30;;;;;;;;;;;8.70;99.90;;;;;;5072222;28;19909;-73
2024/03/15 06:17:56;;;;;;;;;;;8.80;99.90;;;;;;5072156;28;19908;-73
2024/03/15 06:20:21;;;;;;;;;;;9.00;99.90;;;;;;5071077;28;19916;-72
2024/03/15 06:22:47;;;;;;;;;;;9.20;99.90;;;;;;5070762;28;19908;-73
2024/03/15 06:25:13;;;;;;;;;;;9.40;99.90;;;;;;5070785;28;19916;-73
2024/03/15 06:27:39;;;;;;;;;;;9.60;99.90;;;;;;5071990;28;20396;-73
2024/03/15 06:30:08;;;;;;;;;;;9.70;99.90;;;;;;5070662;28;19908;-72
2024/03/15 06:32:38;;;;;;;;;;;10.00;99.90;;;;;;5067732;28;19908;-73
2024/03/15 06:35:18;;;;;;;;;;;10.10;99.90;;;;;;5070545;28;20438;-73
2024/03/15 06:37:53;;;;;;;;;;;10.30;99.90;;;;;;5071908;28;19908;-72
2024/03/15 06:40:19;;;;;;;;;;;10.50;99.90;;;;;;5070603;28;19947;-74
2024/03/15 06:45:44;;;;;;;;;;;11.20;98.50;;;;;;5071646;28;19920;-73
2024/03/15 06:48:17;;;;;;;;;;;11.60;97.50;;;;;;5071790;28;20375;-74
2024/03/15 06:53:28;;;;;;;;;;;12.30;94.40;;;;;;5071808;28;19950;-73
2024/03/15 06:55:55;;;;;;;;;;;12.90;91.40;;;;;;5071404;28;19958;-74
2024/03/15 06:58:20;;;;;;;;;;;13.30;90.40;;;;;;5071447;28;20333;-75
2024/03/15 07:00:48;;;;;;;;;;;13.60;87.50;;;;;;5069647;28;19915;-70
2024/03/15 07:03:13;;;;;;;;;;;13.90;84.10;;;;;;5070303;28;19916;-71
2024/03/15 07:05:39;;;;;;;;;;;14.10;82.30;;;;;;5070028;28;19921;-72
2024/03/15 07:08:05;;;;;;;;;;;14.50;79.00;;;;;;5071141;28;20003;-73
2024/03/15 07:10:31;;;;;;;;;;;14.80;78.00;;;;;;5070114;28;19962;-72
2024/03/15 07:12:56;;;;;;;;;;;15.20;73.10;;;;;;5071066;28;19908;-70
2024/03/15 07:15:22;;;;;;;;;;;15.30;71.10;;;;;;5069732;28;19908;-72
2024/03/15 07:17:48;;;;;;;;;;;15.30;69.60;;;;;;5069897;28;19978;-72
2024/03/15 07:20:13;;;;;;;;;;;15.20;69.60;;;;;;5069578;28;19991;-72
2024/03/15 07:22:42;;;;;;;;;;;15.30;70.50;;;;;;5069816;28;19915;-72
2024/03/15 07:25:10;;;;;;;;;;;15.50;68.70;;;;;;5070941;28;19970;-71
2024/03/15 07:27:38;;;;;;;;;;;15.80;65.70;;;;;;5070671;28;19908;-72
2024/03/15 07:30:05;;;;;;;;;;;16.10;63.70;;;;;;5070620;28;19927;-71
2024/03/15 07:32:30;;;;;;;;;;;16.20;64.40;;;;;;5069016;28;19908;-72
2024/03/15 07:34:56;;;;;;;;;;;16.50;62.70;;;;;;5069004;28;20400;-72
2024/03/15 07:37:22;;;;;;;;;;;16.70;61.50;;;;;;5069310;28;19958;-71
2024/03/15 07:39:48;;;;;;;;;;;17.00;60.00;;;;;;5070598;28;19908;-74
2024/03/15 07:42:14;;;;;;;;;;;17.20;59.20;;;;;;5070574;28;19911;-74
2024/03/15 07:44:40;;;;;;;;;;;17.70;57.00;;;;;;5068893;28;19915;-74
2024/03/15 07:47:06;;;;;;;;;;;17.90;55.30;;;;;;5069234;28;19908;-72
2024/03/15 07:49:32;;;;;;;;;;;18.00;54.60;;;;;;5069183;28;19992;-72
2024/03/15 07:51:58;;;;;;;;;;;18.10;54.80;;;;;;5070236;28;19995;-72
2024/03/15 07:54:23;;;;;;;;;;;18.20;53.50;;;;;;5070252;28;19911;-74
2024/03/15 07:56:49;;;;;;;;;;;18.50;52.90;;;;;;5069239;28;20277;-74
2024/03/15 07:59:15;;;;;;;;;;;18.80;52.30;;;;;;5070208;28;19916;-73
2024/03/15 08:01:43;;;;;;;;;;;18.70;51.80;;;;;;5070205;28;20186;-74
2024/03/15 08:04:09;;;;;;;;;;;19.00;50.80;;;;;;5069685;28;20797;-74
2024/03/15 08:06:38;;;;;;;;;;;19.40;50.00;;;;;;5069724;28;19984;-75
2024/03/15 08:09:04;;;;;;;;;;;19.50;48.90;;;;;;5070253;28;19908;-74
2024/03/15 08:11:33;;;;;;;;;;;19.60;48.80;;;;;;5069142;28;19908;-73
2024/03/15 08:13:59;;;;;;;;;;;19.60;47.50;;;;;;5070066;28;19912;-75
2024/03/15 08:16:33;;;;;;;;;;;19.30;48.80;;;;;;5070099;28;20002;-75
2024/03/15 08:19:08;;;;;;;;;;;19.60;48.50;;;;;;5070241;28;19912;-74
2024/03/15 08:21:36;;;;;;;;;;;19.40;47.70;;;;;;5068634;28;19908;-75
2024/03/15 08:24:04;;;;;;;;;;;19.50;48.80;;;;;;5068452;28;19979;-75
2024/03/15 08:26:31;;;;;;;;;;;19.90;48.50;;;;;;5069872;28;19915;-72
2024/03/15 08:28:56;;;;;;;;;;;20.50;45.70;;;;;;5069526;28;19915;-73
2024/03/15 08:31:22;;;;;;;;;;;20.70;44.40;;;;;;5069823;28;20363;-72
2024/03/15 08:33:47;;;;;;;;;;;20.30;46.40;;;;;;5068434;28;20432;-73
2024/03/15 08:36:13;;;;;;;;;;;20.20;46.60;;;;;;5068599;28;19913;-71
2024/03/15 08:38:39;;;;;;;;;;;20.50;45.90;;;;;;5068277;28;19908;-72
2024/03/15 08:41:05;;;;;;;;;;;20.50;45.20;;;;;;5070006;28;19908;-72
2024/03/15 08:43:31;;;;;;;;;;;20.20;45.70;;;;;;5068752;28;19914;-73
2024/03/15 08:45:56;;;;;;;;;;;20.10;46.60;;;;;;5069601;28;20364;-72
2024/03/15 08:48:22;;;;;;;;;;;20.00;46.10;;;;;;5069911;28;19912;-73
2024/03/15 08:50:48;;;;;;;;;;;19.70;47.20;;;;;;5069759;28;19913;-73
2024/03/15 08:53:14;;;;;;;;;;;19.80;48.80;;;;;;5070032;28;20327;-73
2024/03/15 08:55:41;;;;;;;;;;;20.20;46.00;;;;;;5068264;28;20359;-73
2024/03/15 08:58:07;;;;;;;;;;;20.20;45.70;;;;;;5069889;28;19915;-72
2024/03/15 09:00:33;;;;;;;;;;;19.70;46.30;;;;;;5068642;28;19950;-73
2024/03/15 09:02:58;;;;;;;;;;;19.30;48.00;;;;;;5068303;28;20391;-73
2024/03/15 09:05:24;;;;;;;;;;;19.30;49.30;;;;;;5067982;28;20014;-73
2024/03/15 09:07:50;;;;;;;;;;;19.30;48.90;;;;;;5069642;28;20361;-72
2024/03/15 09:10:15;;;;;;;;;;;19.30;49.10;;;;;;5068085;28;19911;-73
2024/03/15 09:12:41;;;;;;;;;;;19.30;48.50;;;;;;5069515;28;19908;-73
2024/03/15 09:15:13;;;;;;;;;;;19.50;47.10;;;;;;5069444;28;19950;-73
2024/03/15 09:17:39;;;;;;;;;;;19.40;48.20;;;;;;5069583;28;19915;-73
2024/03/15 09:20:18;;;;;;;;;;;19.50;48.10;;;;;;5069451;28;20315;-72
2024/03/15 09:22:50;;;;;;;;;;;19.70;47.60;;;;;;5069544;28;19908;-73
2024/03/15 09:25:18;;;;;;;;;;;19.60;49.50;;;;;;5068053;28;19916;-72
2024/03/15 09:27:45;;;;;;;;;;;20.00;50.90;;;;;;5069358;28;19947;-73
2024/03/15 09:30:17;;;;;;;;;;;20.50;50.10;;;;;;5069338;28;19916;-71
2024/03/15 09:32:44;;;;;;;;;;;20.90;48.80;;;;;;5069230;28;19908;-76
2024/03/15 09:35:12;;;;;;;;;;;21.10;49.10;;;;;;5067876;28;20335;-75
2024/03/15 09:37:50;;;;;;;;;;;21.20;49.00;;;;;;5069275;28;19911;-74
2024/03/15 09:40:17;;;;;;;;;;;21.20;48.50;;;;;;5070710;28;19904;-73
2024/03/15 09:42:51;;;;;;;;;;;21.30;48.10;;;;;;5072987;28;19992;-72
2024/03/15 09:45:17;;;;;;;;;;;21.30;46.20;;;;;;5072770;28;19920;-72
2024/03/15 09:47:43;;;;;;;;;;;21.00;48.80;;;;;;5071636;28;20365;-72
2024/03/15 09:50:11;;;;;;;;;;;21.30;48.40;;;;;;5072695;28;19999;-73
2024/03/15 09:52:37;;;;;;;;;;;21.40;48.20;;;;;;5071535;28;20410;-74
2024/03/15 09:55:04;;;;;;;;;;;21.30;47.80;;;;;;5072662;28;19999;-74
2024/03/15 09:57:29;;;;;;;;;;;21.60;45.70;;;;;;5072675;28;20395;-74
2024/03/15 09:59:55;;;;;;;;;;;21.40;45.20;;;;;;5072585;28;19908;-74
2024/03/15 10:02:23;;;;;;;;;;;21.00;45.00;;;;;;5071143;28;19915;-72
2024/03/15 10:04:50;;;;;;;;;;;20.60;46.30;;;;;;5071356;28;19917;-73
2024/03/15 10:07:15;;;;;;;;;;;20.40;47.70;;;;;;5071096;28;19919;-72
2024/03/15 10:09:41;;;;;;;;;;;20.50;46.00;;;;;;5072964;28;20011;-73
2024/03/15 10:12:09;;;;;;;;;;;20.50;46.60;;;;;;5072569;28;19912;-71
2024/03/15 10:14:34;;;;;;;;;;;20.80;45.70;;;;;;5072507;28;19912;-71
2024/03/15 10:17:00;;;;;;;;;;;20.80;47.20;;;;;;5072240;28;19908;-74
2024/03/15 10:19:28;;;;;;;;;;;21.00;45.70;;;;;;5071241;28;20658;-72
2024/03/15 10:21:57;;;;;;;;;;;21.30;45.60;;;;;;5071668;28;19961;-72
2024/03/15 10:24:24;;;;;;;;;;;21.60;44.40;;;;;;5072164;28;19908;-73
2024/03/15 10:26:51;;;;;;;;;;;21.80;45.70;;;;;;5070824;28;19916;-72
2024/03/15 10:29:16;;;;;;;;;;;22.00;44.70;;;;;;5070568;28;19908;-72
2024/03/15 10:31:42;;;;;;;;;;;22.20;43.30;;;;;;5070847;28;19908;-71
2024/03/15 10:34:11;;;;;;;;;;;21.90;44.10;;;;;;5070242;28;19923;-72
2024/03/15 10:36:37;;;;;;;;;;;21.90;43.70;;;;;;5071538;28;20050;-75
2024/03/15 10:39:02;;;;;;;;;;;21.90;43.20;;;;;;5071776;28;19991;-75
2024/03/15 10:41:29;;;;;;;;;;;22.40;40.70;;;;;;5070571;28;19914;-75
2024/03/15 10:43:55;;;;;;;;;;;22.20;38.10;;;;;;5070428;28;19908;-75
2024/03/15 10:46:21;;;;;;;;;;;21.80;40.90;;;;;;5071838;28;19919;-74
2024/03/15 10:48:47;;;;;;;;;;;21.60;41.70;;;;;;5071867;28;19908;-72
2024/03/15 10:51:13;;;;;;;;;;;21.40;42.00;;;;;;5071360;28;19909;-71
2024/03/15 10:53:39;;;;;;;;;;;21.00;43.30;;;;;;5071403;28;19961;-72
2024/03/15 10:56:05;;;;;;;;;;;20.50;45.10;;;;;;5071558;28;19908;-74
2024/03/15 10:58:31;;;;;;;;;;;20.20;46.80;;;;;;5070145;28;19936;-74
2024/03/15 11:00:56;;;;;;;;;;;19.70;46.30;;;;;;5071533;28;19944;-73
2024/03/15 11:03:28;;;;;;;;;;;19.40;45.40;;;;;;5070110;28;19956;-73
2024/03/15 11:05:53;;;;;;;;;;;19.00;45.80;;;;;;5070374;28;19919;-74
2024/03/15 11:08:22;;;;;;;;;;;18.80;46.30;;;;;;5069652;28;19913;-73
2024/03/15 11:10:54;;;;;;;;;;;18.50;46.20;;;;;;5070214;28;19911;-74
2024/03/15 11:13:20;;;;;;;;;;;18.30;42.00;;;;;;5069310;28;20575;-74
2024/03/15 11:15:45;;;;;;;;;;;18.00;43.10;;;;;;5070832;28;19912;-74
2024/03/15 11:18:13;;;;;;;;;;;17.80;46.20;;;;;;5070920;28;19949;-74
2024/03/15 11:20:48;;;;;;;;;;;17.60;46.90;;;;;;5070779;28;20367;-73
2024/03/15 11:23:14;;;;;;;;;;;17.70;46.90;;;;;;5070909;28;19918;-74
2024/03/15 11:25:42;;;;;;;;;;;17.60;46.40;;;;;;5070743;28;19913;-74
2024/03/15 11:28:08;;;;;;;;;;;17.50;46.60;;;;;;5070801;28;19950;-74
2024/03/15 11:30:33;;;;;;;;;;;17.40;47.00;;;;;;5070796;28;19947;-74
2024/03/15 11:33:00;;;;;;;;;;;17.40;45.90;;;;;;5069277;28;19940;-73
2024/03/15 11:35:25;;;;;;;;;;;17.40;47.20;;;;;;5070428;28;20392;-74
2024/03/15 11:37:57;;;;;;;;;;;17.40;48.10;;;;;;5069458;28;20015;-73
2024/03/15 11:40:26;;;;;;;;;;;17.40;48.70;;;;;;5070380;28;19909;-73
2024/03/15 11:42:51;;;;;;;;;;;17.30;47.70;;;;;;5065065;28;19926;-73
2024/03/15 11:45:17;;;;;;;;;;;17.20;47.40;;;;;;5069017;28;19912;-73
2024/03/15 11:47:43;;;;;;;;;;;17.10;46.10;;;;;;5069203;28;20280;-70
2024/03/15 11:50:15;;;;;;;;;;;16.90;46.70;;;;;;5070208;28;19908;-72
2024/03/15 11:52:42;;;;;;;;;;;16.80;48.40;;;;;;5070826;28;19966;-71
2024/03/15 11:55:11;;;;;;;;;;;16.80;49.20;;;;;;5070605;28;19908;-72
2024/03/15 11:57:37;;;;;;;;;;;16.80;49.30;;;;;;5070131;28;19908;-70
2024/03/15 12:00:09;;;;;;;;;;;16.90;49.30;;;;;;5070174;28;19908;-74
2024/03/15 12:02:36;;;;;;;;;;;17.00;46.90;;;;;;5069541;28;19913;-73
2024/03/15 12:05:01;;;;;;;;;;;17.30;46.40;;;;;;5068568;28;19916;-74
2024/03/15 12:07:27;;;;;;;;;;;17.60;45.50;;;;;;5070155;28;20334;-74
2024/03/15 12:09:58;;;;;;;;;;;17.70;43.40;;;;;;5069700;28;19908;-74
2024/03/15 12:12:25;;;;;;;;;;;17.90;46.20;;;;;;5070040;28;19909;-74
2024/03/15 12:14:53;;;;;;;;;;;18.00;49.20;;;;;;5068652;28;20054;-73
2024/03/15 12:17:19;;;;;;;;;;;18.10;48.50;;;;;;5069790;28;19961;-73
2024/03/15 12:19:45;;;;;;;;;;;18.10;47.80;;;;;;5070106;28;20007;-73
2024/03/15 12:22:11;;;;;;;;;;;18.00;46.20;;;;;;5069925;28;19905;-74
2024/03/15 12:24:36;;;;;;;;;;;17.80;45.00;;;;;;5068496;28;19920;-74
2024/03/15 12:27:02;;;;;;;;;;;17.50;44.40;;;;;;5070230;28;19912;-74
2024/03/15 12:29:28;;;;;;;;;;;17.30;47.00;;;;;;5068841;28;20437;-75
2024/03/15 12:31:54;;;;;;;;;;;17.30;48.70;;;;;;5069973;28;19908;-73
2024/03/15 12:34:19;;;;;;;;;;;17.30;49.00;;;;;;5069706;28;20371;-74
2024/03/15 12:36:45;;;;;;;;;;;17.40;49.30;;;;;;5069709;28;20254;-74
2024/03/15 12:39:11;;;;;;;;;;;17.60;48.50;;;;;;5070049;28;19912;-73
2024/03/15 12:41:38;;;;;;;;;;;17.60;48.40;;;;;;5068465;28;20343;-74
2024/03/15 12:44:03;;;;;;;;;;;17.60;48.70;;;;;;5069609;28;19934;-74
2024/03/15 12:46:29;;;;;;;;;;;17.40;48.30;;;;;;5068498;28;19916;-72
2024/03/15 12:48:55;;;;;;;;;;;17.10;47.90;;;;;;5068768;28;19912;-73
2024/03/15 12:51:20;;;;;;;;;;;17.00;49.40;;;;;;5070005;28;19943;-73
2024/03/15 12:53:46;;;;;;;;;;;17.00;49.90;;;;;;5068389;28;20023;-74
2024/03/15 12:56:11;;;;;;;;;;;17.10;49.70;;;;;;5069591;28;19908;-74
2024/03/15 12:58:37;;;;;;;;;;;17.20;49.40;;;;;;5068287;28;19908;-73
2024/03/15 13:01:02;;;;;;;;;;;17.10;49.60;;;;;;5068486;28;20179;-71
2024/03/15 13:03:28;;;;;;;;;;;17.20;49.60;;;;;;5068288;28;19908;-71
2024/03/15 13:05:53;;;;;;;;;;;17.20;49.20;;;;;;5069717;28;20270;-74
2024/03/15 13:08:19;;;;;;;;;;;17.10;48.60;;;;;;5069541;28;19912;-72
2024/03/15 13:10:45;;;;;;;;;;;17.00;49.40;;;;;;5069603;28;20421;-72
2024/03/15 13:13:11;;;;;;;;;;;16.80;50.00;;;;;;5069957;28;19995;-72
2024/03/15 13:15:36;;;;;;;;;;;16.70;50.50;;;;;;5073277;28;19994;-72
2024/03/15 13:18:02;;;;;;;;;;;16.70;49.20;;;;;;5072027;28;19904;-71
2024/03/15 13:20:28;;;;;;;;;;;16.60;48.60;;;;;;5073345;28;19951;-72
2024/03/15 13:22:54;;;;;;;;;;;16.50;49.80;;;;;;5072024;28;19911;-72
2024/03/15 13:25:24;;;;;;;;;;;16.50;49.10;;;;;;5072047;28;19920;-71
2024/03/15 13:27:52;;;;;;;;;;;16.40;48.20;;;;;;5073609;28;19912;-72
2024/03/15 13:30:19;;;;;;;;;;;16.20;49.60;;;;;;5071677;28;19944;-72
2024/03/15 13:32:45;;;;;;;;;;;16.20;48.70;;;;;;5071866;28;19957;-71
2024/03/15 13:35:15;;;;;;;;;;;16.20;48.70;;;;;;5071672;28;19921;-70
2024/03/15 13:37:41;;;;;;;;;;;16.20;48.50;;;;;;5071545;28;19917;-71
2024/03/15 13:40:15;;;;;;;;;;;16.20;48.80;;;;;;5071876;28;19908;-72
2024/03/15 13:42:44;;;;;;;;;;;16.10;48.50;;;;;;5067799;28;19919;-70
2024/03/15 13:45:15;;;;;;;;;;;16.10;50.20;;;;;;5071532;28;19916;-70
2024/03/15 13:47:41;;;;;;;;;;;16.10;49.90;;;;;;5073434;28;19958;-71
2024/03/15 13:50:10;;;;;;;;;;;16.00;49.60;;;;;;5071562;28;19913;-71
2024/03/15 13:52:36;;;;;;;;;;;16.00;50.70;;;;;;5071544;28;19908;-71
2024/03/15 13:55:07;;;;;;;;;;;15.80;50.00;;;;;;5072675;28;20392;-72
2024/03/15 13:57:35;;;;;;;;;;;15.80;49.10;;;;;;5071375;28;19911;-70
2024/03/15 14:00:00;;;;;;;;;;;15.60;49.30;;;;;;5072730;28;20289;-70
2024/03/15 14:02:26;;;;;;;;;;;15.40;50.00;;;;;;5071265;28;20376;-72
2024/03/15 14:04:51;;;;;;;;;;;15.30;50.30;;;;;;5072551;28;19923;-73
2024/03/15 14:07:17;;;;;;;;;;;15.20;50.20;;;;;;5071125;28;19908;-72
2024/03/15 14:09:42;;;;;;;;;;;15.20;52.10;;;;;;5071196;28;19908;-72
2024/03/15 14:12:08;;;;;;;;;;;15.20;52.20;;;;;;5071365;28;19908;-71
2024/03/15 14:14:34;;;;;;;;;;;15.40;53.00;;;;;;5071256;28;20376;-71
2024/03/15 14:17:02;;;;;;;;;;;15.40;52.80;;;;;;5072343;28;19904;-72
2024/03/15 14:19:27;;;;;;;;;;;15.40;51.90;;;;;;5070971;28;19911;-73
2024/03/15 14:21:53;;;;;;;;;;;15.40;50.70;;;;;;5071237;28;19916;-72
2024/03/15 14:24:19;;;;;;;;;;;15.30;50.60;;;;;;5070680;28;19915;-72